sensor_id;sensor_type;location;lat;lon;timestamp;P1;durP1;ratioP1;P2;durP2;ratioP2
68310;SDS011;55157;51.036;17.058;2023-03-11T00:01:06;5.43;;;2.15;;
68310;SDS011;55157;51.036;17.058;2023-03-11T00:03:31;6.35;;;2.72;;
68310;SDS011;55157;51.036;17.058;2023-03-11T00:05:59;4.30;;;2.10;;
68310;SDS011;55157;51.036;17.058;2023-03-11T00:08:24;6.63;;;1.30;;
68310;SDS011;55157;51.036;17.058;2023-03-11T00:10:50;2.80;;;1.35;;
68310;SDS011;55157;51.036;17.058;2023-03-11T00:13:16;1.45;;;0.90;;
68310;SDS011;55157;51.036;17.058;2023-03-11T00:15:41;1.23;;;0.80;;
68310;SDS011;55157;51.036;17.058;2023-03-11T00:18:08;1.15;;;0.80;;
68310;SDS011;55157;51.036;17.058;2023-03-11T00:20:34;1.58;;;0.90;;
68310;SDS011;55157;51.036;17.058;2023-03-11T00:23:00;4.05;;;1.38;;
68310;SDS011;55157;51.036;17.058;2023-03-11T00:25:26;1.98;;;1.00;;
68310;SDS011;55157;51.036;17.058;2023-03-11T00:27:51;2.00;;;1.05;;
68310;SDS011;55157;51.036;17.058;2023-03-11T00:30:17;2.03;;;1.05;;
68310;SDS011;55157;51.036;17.058;2023-03-11T00:32:42;1.42;;;1.05;;
68310;SDS011;55157;51.036;17.058;2023-03-11T00:35:10;1.88;;;0.93;;
68310;SDS011;55157;51.036;17.058;2023-03-11T00:37:36;1.40;;;0.73;;
68310;SDS011;55157;51.036;17.058;2023-03-11T00:40:01;1.77;;;0.80;;
68310;SDS011;55157;51.036;17.058;2023-03-11T00:42:26;2.58;;;0.90;;
68310;SDS011;55157;51.036;17.058;2023-03-11T00:44:52;1.30;;;0.90;;
68310;SDS011;55157;51.036;17.058;2023-03-11T00:47:17;1.98;;;0.80;;
68310;SDS011;55157;51.036;17.058;2023-03-11T00:49:42;1.90;;;0.98;;
68310;SDS011;55157;51.036;17.058;2023-03-11T00:52:09;1.17;;;0.80;;
68310;SDS011;55157;51.036;17.058;2023-03-11T00:54:34;2.38;;;1.00;;
68310;SDS011;55157;51.036;17.058;2023-03-11T00:57:00;0.90;;;0.70;;
68310;SDS011;55157;51.036;17.058;2023-03-11T00:59:25;1.95;;;1.10;;
68310;SDS011;55157;51.036;17.058;2023-03-11T01:01:50;0.82;;;0.68;;
68310;SDS011;55157;51.036;17.058;2023-03-11T01:04:15;3.70;;;2.20;;
68310;SDS011;55157;51.036;17.058;2023-03-11T01:06:41;3.47;;;1.05;;
68310;SDS011;55157;51.036;17.058;2023-03-11T01:09:07;1.60;;;0.90;;
68310;SDS011;55157;51.036;17.058;2023-03-11T01:11:33;1.17;;;0.80;;
68310;SDS011;55157;51.036;17.058;2023-03-11T01:13:58;2.42;;;1.23;;
68310;SDS011;55157;51.036;17.058;2023-03-11T01:16:23;1.35;;;0.70;;
68310;SDS011;55157;51.036;17.058;2023-03-11T01:18:48;2.22;;;1.15;;
68310;SDS011;55157;51.036;17.058;2023-03-11T01:21:14;5.13;;;2.20;;
68310;SDS011;55157;51.036;17.058;2023-03-11T01:23:39;1.65;;;0.95;;
68310;SDS011;55157;51.036;17.058;2023-03-11T01:26:06;1.95;;;1.25;;
68310;SDS011;55157;51.036;17.058;2023-03-11T01:28:31;2.95;;;1.10;;
68310;SDS011;55157;51.036;17.058;2023-03-11T01:30:57;2.70;;;1.20;;
68310;SDS011;55157;51.036;17.058;2023-03-11T01:33:22;3.28;;;1.23;;
68310;SDS011;55157;51.036;17.058;2023-03-11T01:35:47;2.25;;;1.30;;
68310;SDS011;55157;51.036;17.058;2023-03-11T01:38:13;2.97;;;1.58;;
68310;SDS011;55157;51.036;17.058;2023-03-11T01:40:39;2.20;;;1.35;;
68310;SDS011;55157;51.036;17.058;2023-03-11T01:46:08;2.33;;;1.30;;
68310;SDS011;55157;51.036;17.058;2023-03-11T01:48:34;1.73;;;1.15;;
68310;SDS011;55157;51.036;17.058;2023-03-11T01:50:59;3.65;;;1.50;;
68310;SDS011;55157;51.036;17.058;2023-03-11T01:53:24;2.95;;;1.40;;
68310;SDS011;55157;51.036;17.058;2023-03-11T01:55:50;3.95;;;1.67;;
68310;SDS011;55157;51.036;17.058;2023-03-11T01:58:17;5.90;;;1.83;;
68310;SDS011;55157;51.036;17.058;2023-03-11T02:00:44;2.85;;;1.63;;
68310;SDS011;55157;51.036;17.058;2023-03-11T02:03:10;2.55;;;1.95;;
68310;SDS011;55157;51.036;17.058;2023-03-11T02:05:38;5.30;;;1.92;;
68310;SDS011;55157;51.036;17.058;2023-03-11T02:08:04;3.97;;;1.98;;
68310;SDS011;55157;51.036;17.058;2023-03-11T02:10:29;2.28;;;1.65;;
68310;SDS011;55157;51.036;17.058;2023-03-11T02:12:55;3.80;;;2.00;;
68310;SDS011;55157;51.036;17.058;2023-03-11T02:15:22;4.88;;;2.08;;
68310;SDS011;55157;51.036;17.058;2023-03-11T02:17:48;3.60;;;2.67;;
68310;SDS011;55157;51.036;17.058;2023-03-11T02:20:15;6.00;;;2.60;;
68310;SDS011;55157;51.036;17.058;2023-03-11T02:22:43;5.78;;;2.60;;
68310;SDS011;55157;51.036;17.058;2023-03-11T02:25:10;3.30;;;2.42;;
68310;SDS011;55157;51.036;17.058;2023-03-11T02:27:39;3.97;;;2.58;;
68310;SDS011;55157;51.036;17.058;2023-03-11T02:30:05;3.63;;;2.30;;
68310;SDS011;55157;51.036;17.058;2023-03-11T02:32:32;5.47;;;3.13;;
68310;SDS011;55157;51.036;17.058;2023-03-11T02:34:57;3.47;;;2.33;;
68310;SDS011;55157;51.036;17.058;2023-03-11T02:37:22;4.35;;;2.75;;
68310;SDS011;55157;51.036;17.058;2023-03-11T02:39:48;3.67;;;2.40;;
68310;SDS011;55157;51.036;17.058;2023-03-11T02:42:14;4.15;;;2.10;;
68310;SDS011;55157;51.036;17.058;2023-03-11T02:44:43;4.18;;;2.72;;
68310;SDS011;55157;51.036;17.058;2023-03-11T02:47:09;3.10;;;2.42;;
68310;SDS011;55157;51.036;17.058;2023-03-11T02:49:34;2.58;;;2.20;;
68310;SDS011;55157;51.036;17.058;2023-03-11T02:52:00;3.25;;;2.20;;
68310;SDS011;55157;51.036;17.058;2023-03-11T02:54:25;3.05;;;2.30;;
68310;SDS011;55157;51.036;17.058;2023-03-11T02:56:51;6.60;;;2.40;;
68310;SDS011;55157;51.036;17.058;2023-03-11T02:59:16;4.05;;;2.20;;
68310;SDS011;55157;51.036;17.058;2023-03-11T03:01:43;3.58;;;2.42;;
68310;SDS011;55157;51.036;17.058;2023-03-11T03:04:08;4.80;;;1.90;;
68310;SDS011;55157;51.036;17.058;2023-03-11T03:06:33;6.03;;;2.92;;
68310;SDS011;55157;51.036;17.058;2023-03-11T03:08:58;5.40;;;2.22;;
68310;SDS011;55157;51.036;17.058;2023-03-11T03:11:24;2.65;;;2.20;;
68310;SDS011;55157;51.036;17.058;2023-03-11T03:13:49;5.35;;;2.22;;
68310;SDS011;55157;51.036;17.058;2023-03-11T03:16:14;1.88;;;0.70;;
68310;SDS011;55157;51.036;17.058;2023-03-11T03:18:41;1.48;;;0.68;;
68310;SDS011;55157;51.036;17.058;2023-03-11T03:21:07;0.90;;;0.52;;
68310;SDS011;55157;51.036;17.058;2023-03-11T03:23:33;3.17;;;0.50;;
68310;SDS011;55157;51.036;17.058;2023-03-11T03:25:58;0.77;;;0.77;;
68310;SDS011;55157;51.036;17.058;2023-03-11T03:28:23;1.73;;;0.50;;
68310;SDS011;55157;51.036;17.058;2023-03-11T03:30:48;0.60;;;0.52;;
68310;SDS011;55157;51.036;17.058;2023-03-11T03:33:13;0.50;;;0.50;;
68310;SDS011;55157;51.036;17.058;2023-03-11T03:35:41;1.65;;;0.70;;
68310;SDS011;55157;51.036;17.058;2023-03-11T03:38:07;2.40;;;0.60;;
68310;SDS011;55157;51.036;17.058;2023-03-11T03:40:32;1.73;;;0.70;;
68310;SDS011;55157;51.036;17.058;2023-03-11T03:42:57;0.60;;;0.50;;
68310;SDS011;55157;51.036;17.058;2023-03-11T03:45:23;0.55;;;0.52;;
68310;SDS011;55157;51.036;17.058;2023-03-11T03:47:48;0.85;;;0.63;;
68310;SDS011;55157;51.036;17.058;2023-03-11T03:50:13;0.70;;;0.60;;
68310;SDS011;55157;51.036;17.058;2023-03-11T03:52:40;1.05;;;0.68;;
68310;SDS011;55157;51.036;17.058;2023-03-11T03:55:05;0.73;;;0.50;;
68310;SDS011;55157;51.036;17.058;2023-03-11T03:57:31;0.40;;;0.40;;
68310;SDS011;55157;51.036;17.058;2023-03-11T03:59:56;0.73;;;0.50;;
68310;SDS011;55157;51.036;17.058;2023-03-11T04:02:21;0.75;;;0.50;;
68310;SDS011;55157;51.036;17.058;2023-03-11T04:04:47;0.68;;;0.50;;
68310;SDS011;55157;51.036;17.058;2023-03-11T04:07:12;0.50;;;0.50;;
68310;SDS011;55157;51.036;17.058;2023-03-11T04:09:39;0.47;;;0.47;;
68310;SDS011;55157;51.036;17.058;2023-03-11T04:12:04;0.40;;;0.40;;
68310;SDS011;55157;51.036;17.058;2023-03-11T04:14:30;1.42;;;0.60;;
68310;SDS011;55157;51.036;17.058;2023-03-11T04:16:55;0.50;;;0.50;;
68310;SDS011;55157;51.036;17.058;2023-03-11T04:19:20;0.50;;;0.50;;
68310;SDS011;55157;51.036;17.058;2023-03-11T04:21:45;0.40;;;0.40;;
68310;SDS011;55157;51.036;17.058;2023-03-11T04:24:11;4.05;;;0.50;;
68310;SDS011;55157;51.036;17.058;2023-03-11T04:26:37;0.50;;;0.50;;
68310;SDS011;55157;51.036;17.058;2023-03-11T04:29:03;0.73;;;0.70;;
68310;SDS011;55157;51.036;17.058;2023-03-11T04:31:28;0.57;;;0.57;;
68310;SDS011;55157;51.036;17.058;2023-03-11T04:33:53;0.52;;;0.50;;
68310;SDS011;55157;51.036;17.058;2023-03-11T04:36:18;1.27;;;0.52;;
68310;SDS011;55157;51.036;17.058;2023-03-11T04:38:44;0.68;;;0.50;;
68310;SDS011;55157;51.036;17.058;2023-03-11T04:41:09;0.40;;;0.40;;
68310;SDS011;55157;51.036;17.058;2023-03-11T04:43:36;1.75;;;0.50;;
68310;SDS011;55157;51.036;17.058;2023-03-11T04:46:01;0.70;;;0.50;;
68310;SDS011;55157;51.036;17.058;2023-03-11T04:48:26;0.60;;;0.60;;
68310;SDS011;55157;51.036;17.058;2023-03-11T04:50:51;0.47;;;0.47;;
68310;SDS011;55157;51.036;17.058;2023-03-11T04:53:17;1.42;;;0.80;;
68310;SDS011;55157;51.036;17.058;2023-03-11T04:55:42;0.50;;;0.50;;
68310;SDS011;55157;51.036;17.058;2023-03-11T04:58:07;0.50;;;0.50;;
68310;SDS011;55157;51.036;17.058;2023-03-11T05:00:34;0.70;;;0.60;;
68310;SDS011;55157;51.036;17.058;2023-03-11T05:03:00;1.30;;;0.77;;
68310;SDS011;55157;51.036;17.058;2023-03-11T05:05:25;2.63;;;0.60;;
68310;SDS011;55157;51.036;17.058;2023-03-11T05:07:50;0.50;;;0.50;;
68310;SDS011;55157;51.036;17.058;2023-03-11T05:10:16;1.65;;;0.63;;
68310;SDS011;55157;51.036;17.058;2023-03-11T05:12:41;0.88;;;0.80;;
68310;SDS011;55157;51.036;17.058;2023-03-11T05:15:06;2.20;;;0.80;;
68310;SDS011;55157;51.036;17.058;2023-03-11T05:17:33;3.78;;;0.70;;
68310;SDS011;55157;51.036;17.058;2023-03-11T05:19:58;1.17;;;0.63;;
68310;SDS011;55157;51.036;17.058;2023-03-11T05:22:24;0.77;;;0.70;;
68310;SDS011;55157;51.036;17.058;2023-03-11T05:24:49;0.90;;;0.60;;
68310;SDS011;55157;51.036;17.058;2023-03-11T05:27:14;1.45;;;0.80;;
68310;SDS011;55157;51.036;17.058;2023-03-11T05:29:40;4.18;;;0.70;;
68310;SDS011;55157;51.036;17.058;2023-03-11T05:32:05;0.85;;;0.68;;
68310;SDS011;55157;51.036;17.058;2023-03-11T05:34:32;0.82;;;0.80;;
68310;SDS011;55157;51.036;17.058;2023-03-11T05:36:57;1.08;;;0.80;;
68310;SDS011;55157;51.036;17.058;2023-03-11T05:39:22;1.05;;;0.80;;
68310;SDS011;55157;51.036;17.058;2023-03-11T05:41:48;1.58;;;1.35;;
68310;SDS011;55157;51.036;17.058;2023-03-11T05:44:13;2.88;;;1.13;;
68310;SDS011;55157;51.036;17.058;2023-03-11T05:46:38;1.98;;;1.00;;
68310;SDS011;55157;51.036;17.058;2023-03-11T05:49:03;0.95;;;0.85;;
68310;SDS011;55157;51.036;17.058;2023-03-11T05:51:30;1.10;;;0.95;;
68310;SDS011;55157;51.036;17.058;2023-03-11T05:53:55;0.70;;;0.70;;
68310;SDS011;55157;51.036;17.058;2023-03-11T05:56:21;1.20;;;1.10;;
68310;SDS011;55157;51.036;17.058;2023-03-11T05:58:46;1.42;;;1.00;;
68310;SDS011;55157;51.036;17.058;2023-03-11T06:01:12;1.05;;;0.88;;
68310;SDS011;55157;51.036;17.058;2023-03-11T06:03:38;1.25;;;1.00;;
68310;SDS011;55157;51.036;17.058;2023-03-11T06:06:04;1.33;;;1.13;;
68310;SDS011;55157;51.036;17.058;2023-03-11T06:08:31;1.30;;;1.00;;
68310;SDS011;55157;51.036;17.058;2023-03-11T06:10:59;1.20;;;1.10;;
68310;SDS011;55157;51.036;17.058;2023-03-11T06:13:24;2.00;;;1.48;;
68310;SDS011;55157;51.036;17.058;2023-03-11T06:15:50;1.80;;;1.52;;
68310;SDS011;55157;51.036;17.058;2023-03-11T06:18:15;2.53;;;2.25;;
68310;SDS011;55157;51.036;17.058;2023-03-11T06:20:40;1.92;;;1.73;;
68310;SDS011;55157;51.036;17.058;2023-03-11T06:23:05;2.00;;;1.80;;
68310;SDS011;55157;51.036;17.058;2023-03-11T06:25:32;2.13;;;1.70;;
68310;SDS011;55157;51.036;17.058;2023-03-11T06:27:58;1.90;;;1.70;;
68310;SDS011;55157;51.036;17.058;2023-03-11T06:30:23;2.50;;;1.98;;
68310;SDS011;55157;51.036;17.058;2023-03-11T06:32:48;3.15;;;2.00;;
68310;SDS011;55157;51.036;17.058;2023-03-11T06:35:13;2.15;;;1.80;;
68310;SDS011;55157;51.036;17.058;2023-03-11T06:37:39;2.58;;;1.90;;
68310;SDS011;55157;51.036;17.058;2023-03-11T06:40:05;2.78;;;2.00;;
68310;SDS011;55157;51.036;17.058;2023-03-11T06:42:32;2.30;;;2.03;;
68310;SDS011;55157;51.036;17.058;2023-03-11T06:44:57;2.28;;;2.05;;
68310;SDS011;55157;51.036;17.058;2023-03-11T06:47:23;2.42;;;2.05;;
68310;SDS011;55157;51.036;17.058;2023-03-11T06:49:49;2.47;;;2.28;;
68310;SDS011;55157;51.036;17.058;2023-03-11T06:52:14;2.53;;;2.00;;
68310;SDS011;55157;51.036;17.058;2023-03-11T06:54:39;4.25;;;2.15;;
68310;SDS011;55157;51.036;17.058;2023-03-11T06:57:05;2.92;;;2.28;;
68310;SDS011;55157;51.036;17.058;2023-03-11T06:59:32;3.17;;;2.53;;
68310;SDS011;55157;51.036;17.058;2023-03-11T07:01:57;2.22;;;2.03;;
68310;SDS011;55157;51.036;17.058;2023-03-11T07:04:23;3.72;;;2.80;;
68310;SDS011;55157;51.036;17.058;2023-03-11T07:06:48;3.20;;;2.40;;
68310;SDS011;55157;51.036;17.058;2023-03-11T07:09:13;3.53;;;2.70;;
68310;SDS011;55157;51.036;17.058;2023-03-11T07:11:39;3.28;;;2.70;;
68310;SDS011;55157;51.036;17.058;2023-03-11T07:14:04;2.90;;;2.33;;
68310;SDS011;55157;51.036;17.058;2023-03-11T07:16:31;2.70;;;2.45;;
68310;SDS011;55157;51.036;17.058;2023-03-11T07:18:56;6.50;;;2.30;;
68310;SDS011;55157;51.036;17.058;2023-03-11T07:21:22;3.65;;;2.75;;
68310;SDS011;55157;51.036;17.058;2023-03-11T07:23:48;5.85;;;2.70;;
68310;SDS011;55157;51.036;17.058;2023-03-11T07:26:15;3.28;;;2.58;;
68310;SDS011;55157;51.036;17.058;2023-03-11T07:28:41;3.28;;;2.60;;
68310;SDS011;55157;51.036;17.058;2023-03-11T07:31:06;3.22;;;2.88;;
68310;SDS011;55157;51.036;17.058;2023-03-11T07:33:33;6.68;;;2.60;;
68310;SDS011;55157;51.036;17.058;2023-03-11T07:35:59;3.83;;;2.60;;
68310;SDS011;55157;51.036;17.058;2023-03-11T07:38:24;4.53;;;2.50;;
68310;SDS011;55157;51.036;17.058;2023-03-11T07:40:56;3.40;;;2.95;;
68310;SDS011;55157;51.036;17.058;2023-03-11T07:43:21;4.38;;;3.10;;
68310;SDS011;55157;51.036;17.058;2023-03-11T07:45:46;3.97;;;3.03;;
68310;SDS011;55157;51.036;17.058;2023-03-11T07:48:11;5.03;;;3.40;;
68310;SDS011;55157;51.036;17.058;2023-03-11T07:50:38;4.03;;;2.90;;
68310;SDS011;55157;51.036;17.058;2023-03-11T07:53:03;3.80;;;2.90;;
68310;SDS011;55157;51.036;17.058;2023-03-11T07:55:29;3.63;;;2.60;;
68310;SDS011;55157;51.036;17.058;2023-03-11T07:57:54;4.15;;;2.83;;
68310;SDS011;55157;51.036;17.058;2023-03-11T08:00:19;4.53;;;2.70;;
68310;SDS011;55157;51.036;17.058;2023-03-11T08:02:45;3.95;;;3.25;;
68310;SDS011;55157;51.036;17.058;2023-03-11T08:05:10;4.22;;;2.95;;
68310;SDS011;55157;51.036;17.058;2023-03-11T08:07:41;3.90;;;3.35;;
68310;SDS011;55157;51.036;17.058;2023-03-11T08:10:07;3.05;;;2.65;;
68310;SDS011;55157;51.036;17.058;2023-03-11T08:12:32;5.20;;;3.60;;
68310;SDS011;55157;51.036;17.058;2023-03-11T08:14:57;5.38;;;3.30;;
68310;SDS011;55157;51.036;17.058;2023-03-11T08:17:23;4.43;;;3.13;;
68310;SDS011;55157;51.036;17.058;2023-03-11T08:19:48;5.07;;;3.33;;
68310;SDS011;55157;51.036;17.058;2023-03-11T08:22:13;3.78;;;3.03;;
68310;SDS011;55157;51.036;17.058;2023-03-11T08:24:40;4.00;;;3.40;;
68310;SDS011;55157;51.036;17.058;2023-03-11T08:27:05;3.97;;;3.00;;
68310;SDS011;55157;51.036;17.058;2023-03-11T08:29:30;3.50;;;2.88;;
68310;SDS011;55157;51.036;17.058;2023-03-11T08:31:55;3.45;;;2.85;;
68310;SDS011;55157;51.036;17.058;2023-03-11T08:34:21;5.25;;;3.40;;
68310;SDS011;55157;51.036;17.058;2023-03-11T08:36:46;3.95;;;3.15;;
68310;SDS011;55157;51.036;17.058;2023-03-11T08:39:11;4.05;;;2.72;;
68310;SDS011;55157;51.036;17.058;2023-03-11T08:41:38;4.72;;;2.97;;
68310;SDS011;55157;51.036;17.058;2023-03-11T08:44:03;3.47;;;2.72;;
68310;SDS011;55157;51.036;17.058;2023-03-11T08:46:30;3.25;;;2.75;;
68310;SDS011;55157;51.036;17.058;2023-03-11T08:48:55;3.20;;;2.47;;
68310;SDS011;55157;51.036;17.058;2023-03-11T08:51:21;4.38;;;3.17;;
68310;SDS011;55157;51.036;17.058;2023-03-11T08:53:46;4.05;;;2.88;;
68310;SDS011;55157;51.036;17.058;2023-03-11T08:56:12;3.08;;;2.75;;
68310;SDS011;55157;51.036;17.058;2023-03-11T08:58:39;5.22;;;3.17;;
68310;SDS011;55157;51.036;17.058;2023-03-11T09:01:04;5.20;;;2.92;;
68310;SDS011;55157;51.036;17.058;2023-03-11T09:03:30;3.67;;;2.83;;
68310;SDS011;55157;51.036;17.058;2023-03-11T09:05:56;3.70;;;2.80;;
68310;SDS011;55157;51.036;17.058;2023-03-11T09:08:21;3.72;;;2.58;;
68310;SDS011;55157;51.036;17.058;2023-03-11T09:10:46;3.95;;;2.65;;
68310;SDS011;55157;51.036;17.058;2023-03-11T09:13:11;4.60;;;2.92;;
68310;SDS011;55157;51.036;17.058;2023-03-11T09:15:46;4.30;;;3.22;;
68310;SDS011;55157;51.036;17.058;2023-03-11T09:18:11;3.15;;;2.63;;
68310;SDS011;55157;51.036;17.058;2023-03-11T09:20:37;3.13;;;2.40;;
68310;SDS011;55157;51.036;17.058;2023-03-11T09:23:02;3.35;;;2.45;;
68310;SDS011;55157;51.036;17.058;2023-03-11T09:25:28;2.83;;;2.38;;
68310;SDS011;55157;51.036;17.058;2023-03-11T09:27:53;2.58;;;2.00;;
68310;SDS011;55157;51.036;17.058;2023-03-11T09:30:18;4.13;;;2.40;;
68310;SDS011;55157;51.036;17.058;2023-03-11T09:54:33;3.42;;;2.03;;
68310;SDS011;55157;51.036;17.058;2023-03-11T09:57:02;2.38;;;1.90;;
68310;SDS011;55157;51.036;17.058;2023-03-11T09:59:29;2.50;;;1.60;;
68310;SDS011;55157;51.036;17.058;2023-03-11T10:01:56;2.75;;;2.15;;
68310;SDS011;55157;51.036;17.058;2023-03-11T10:04:22;3.17;;;1.95;;
68310;SDS011;55157;51.036;17.058;2023-03-11T10:06:50;4.60;;;2.58;;
68310;SDS011;55157;51.036;17.058;2023-03-11T10:09:25;4.93;;;2.72;;
68310;SDS011;55157;51.036;17.058;2023-03-11T10:25:25;6.43;;;3.58;;
68310;SDS011;55157;51.036;17.058;2023-03-11T10:27:53;5.00;;;3.17;;
68310;SDS011;55157;51.036;17.058;2023-03-11T10:30:28;4.43;;;3.05;;
68310;SDS011;55157;51.036;17.058;2023-03-11T10:33:00;3.75;;;2.90;;
68310;SDS011;55157;51.036;17.058;2023-03-11T10:35:28;3.50;;;2.28;;
68310;SDS011;55157;51.036;17.058;2023-03-11T10:37:57;5.75;;;3.30;;
68310;SDS011;55157;51.036;17.058;2023-03-11T10:48:29;3.83;;;2.50;;
68310;SDS011;55157;51.036;17.058;2023-03-11T10:50:56;4.25;;;3.17;;
68310;SDS011;55157;51.036;17.058;2023-03-11T10:53:25;5.25;;;3.28;;
68310;SDS011;55157;51.036;17.058;2023-03-11T10:55:51;5.53;;;3.50;;
68310;SDS011;55157;51.036;17.058;2023-03-11T10:58:18;4.57;;;3.25;;
68310;SDS011;55157;51.036;17.058;2023-03-11T11:01:03;3.60;;;3.08;;
68310;SDS011;55157;51.036;17.058;2023-03-11T11:06:20;5.95;;;5.35;;
68310;SDS011;55157;51.036;17.058;2023-03-11T11:08:46;4.70;;;3.38;;
68310;SDS011;55157;51.036;17.058;2023-03-11T11:11:19;6.40;;;3.70;;
68310;SDS011;55157;51.036;17.058;2023-03-11T11:13:45;5.28;;;3.00;;
68310;SDS011;55157;51.036;17.058;2023-03-11T11:16:19;8.65;;;3.53;;
68310;SDS011;55157;51.036;17.058;2023-03-11T11:18:45;5.97;;;4.32;;
68310;SDS011;55157;51.036;17.058;2023-03-11T11:21:13;4.88;;;3.30;;
68310;SDS011;55157;51.036;17.058;2023-03-11T11:23:41;7.85;;;4.68;;
68310;SDS011;55157;51.036;17.058;2023-03-11T11:26:14;8.98;;;6.30;;
68310;SDS011;55157;51.036;17.058;2023-03-11T11:28:40;6.22;;;3.85;;
68310;SDS011;55157;51.036;17.058;2023-03-11T11:31:07;8.25;;;4.22;;
68310;SDS011;55157;51.036;17.058;2023-03-11T11:33:47;9.57;;;4.13;;
68310;SDS011;55157;51.036;17.058;2023-03-11T11:36:14;6.38;;;3.25;;
68310;SDS011;55157;51.036;17.058;2023-03-11T11:38:42;4.18;;;2.88;;
68310;SDS011;55157;51.036;17.058;2023-03-11T11:41:12;4.15;;;2.83;;
68310;SDS011;55157;51.036;17.058;2023-03-11T11:43:40;4.90;;;2.83;;
68310;SDS011;55157;51.036;17.058;2023-03-11T11:46:10;4.65;;;2.85;;
68310;SDS011;55157;51.036;17.058;2023-03-11T11:48:40;4.65;;;3.03;;
68310;SDS011;55157;51.036;17.058;2023-03-11T11:51:09;5.43;;;3.38;;
68310;SDS011;55157;51.036;17.058;2023-03-11T11:53:38;5.55;;;3.33;;
68310;SDS011;55157;51.036;17.058;2023-03-11T11:56:06;10.18;;;3.38;;
68310;SDS011;55157;51.036;17.058;2023-03-11T11:58:31;5.45;;;2.97;;
68310;SDS011;55157;51.036;17.058;2023-03-11T12:01:02;5.78;;;3.30;;
68310;SDS011;55157;51.036;17.058;2023-03-11T12:03:43;5.30;;;3.60;;
68310;SDS011;55157;51.036;17.058;2023-03-11T12:06:14;3.67;;;2.95;;
68310;SDS011;55157;51.036;17.058;2023-03-11T12:08:44;5.32;;;2.90;;
68310;SDS011;55157;51.036;17.058;2023-03-11T12:11:13;4.43;;;2.55;;
68310;SDS011;55157;51.036;17.058;2023-03-11T12:13:52;3.67;;;2.80;;
68310;SDS011;55157;51.036;17.058;2023-03-11T12:16:23;4.05;;;2.85;;
68310;SDS011;55157;51.036;17.058;2023-03-11T12:18:50;5.07;;;2.88;;
68310;SDS011;55157;51.036;17.058;2023-03-11T12:21:19;6.85;;;3.35;;
68310;SDS011;55157;51.036;17.058;2023-03-11T12:23:51;4.72;;;2.75;;
68310;SDS011;55157;51.036;17.058;2023-03-11T12:26:32;4.80;;;2.47;;
68310;SDS011;55157;51.036;17.058;2023-03-11T12:28:59;4.18;;;2.92;;
68310;SDS011;55157;51.036;17.058;2023-03-11T12:31:27;4.20;;;3.05;;
68310;SDS011;55157;51.036;17.058;2023-03-11T12:33:54;4.97;;;2.72;;
68310;SDS011;55157;51.036;17.058;2023-03-11T12:36:21;5.45;;;3.15;;
68310;SDS011;55157;51.036;17.058;2023-03-11T12:38:48;5.15;;;2.45;;
68310;SDS011;55157;51.036;17.058;2023-03-11T12:41:27;3.83;;;2.80;;
68310;SDS011;55157;51.036;17.058;2023-03-11T12:49:10;6.28;;;2.55;;
68310;SDS011;55157;51.036;17.058;2023-03-11T12:51:37;4.43;;;2.63;;
68310;SDS011;55157;51.036;17.058;2023-03-11T13:02:28;5.13;;;2.78;;
68310;SDS011;55157;51.036;17.058;2023-03-11T13:04:58;4.13;;;2.30;;
68310;SDS011;55157;51.036;17.058;2023-03-11T13:07:44;7.80;;;2.42;;
68310;SDS011;55157;51.036;17.058;2023-03-11T13:10:14;3.75;;;2.28;;
68310;SDS011;55157;51.036;17.058;2023-03-11T13:12:49;6.07;;;2.72;;
68310;SDS011;55157;51.036;17.058;2023-03-11T13:34:45;4.05;;;2.33;;
68310;SDS011;55157;51.036;17.058;2023-03-11T13:37:16;5.27;;;2.50;;
68310;SDS011;55157;51.036;17.058;2023-03-11T13:42:27;6.25;;;2.95;;
68310;SDS011;55157;51.036;17.058;2023-03-11T13:44:53;4.30;;;3.08;;
68310;SDS011;55157;51.036;17.058;2023-03-11T13:47:20;5.97;;;3.17;;
68310;SDS011;55157;51.036;17.058;2023-03-11T13:58:00;6.35;;;3.10;;
68310;SDS011;55157;51.036;17.058;2023-03-11T14:00:26;6.45;;;3.15;;
68310;SDS011;55157;51.036;17.058;2023-03-11T14:02:52;4.93;;;3.00;;
68310;SDS011;55157;51.036;17.058;2023-03-11T14:05:20;7.82;;;3.58;;
68310;SDS011;55157;51.036;17.058;2023-03-11T14:07:46;5.20;;;2.90;;
68310;SDS011;55157;51.036;17.058;2023-03-11T14:10:16;4.63;;;2.70;;
68310;SDS011;55157;51.036;17.058;2023-03-11T14:12:41;4.82;;;2.53;;
68310;SDS011;55157;51.036;17.058;2023-03-11T14:20:29;5.00;;;2.50;;
68310;SDS011;55157;51.036;17.058;2023-03-11T14:22:55;6.30;;;2.65;;
68310;SDS011;55157;51.036;17.058;2023-03-11T14:25:21;6.20;;;2.28;;
68310;SDS011;55157;51.036;17.058;2023-03-11T14:27:51;5.82;;;2.80;;
68310;SDS011;55157;51.036;17.058;2023-03-11T14:30:18;5.65;;;2.40;;
68310;SDS011;55157;51.036;17.058;2023-03-11T14:32:53;6.65;;;2.70;;
68310;SDS011;55157;51.036;17.058;2023-03-11T14:35:19;5.80;;;2.50;;
68310;SDS011;55157;51.036;17.058;2023-03-11T14:43:06;4.97;;;2.53;;
68310;SDS011;55157;51.036;17.058;2023-03-11T14:45:32;6.35;;;2.35;;
68310;SDS011;55157;51.036;17.058;2023-03-11T14:48:00;6.57;;;2.85;;
68310;SDS011;55157;51.036;17.058;2023-03-11T14:50:27;4.53;;;2.67;;
68310;SDS011;55157;51.036;17.058;2023-03-11T14:52:54;4.78;;;2.42;;
68310;SDS011;55157;51.036;17.058;2023-03-11T14:55:22;4.95;;;2.70;;
68310;SDS011;55157;51.036;17.058;2023-03-11T14:57:50;5.47;;;3.15;;
68310;SDS011;55157;51.036;17.058;2023-03-11T15:00:21;5.57;;;2.97;;
68310;SDS011;55157;51.036;17.058;2023-03-11T15:02:51;4.20;;;2.65;;
68310;SDS011;55157;51.036;17.058;2023-03-11T15:05:20;4.15;;;2.35;;
68310;SDS011;55157;51.036;17.058;2023-03-11T15:07:48;6.57;;;2.67;;
68310;SDS011;55157;51.036;17.058;2023-03-11T15:10:15;5.28;;;2.53;;
68310;SDS011;55157;51.036;17.058;2023-03-11T15:12:42;5.68;;;3.13;;
68310;SDS011;55157;51.036;17.058;2023-03-11T15:15:24;10.40;;;3.65;;
68310;SDS011;55157;51.036;17.058;2023-03-11T15:20:23;8.00;;;2.83;;
68310;SDS011;55157;51.036;17.058;2023-03-11T15:22:52;5.05;;;2.50;;
68310;SDS011;55157;51.036;17.058;2023-03-11T15:25:18;5.07;;;2.75;;
68310;SDS011;55157;51.036;17.058;2023-03-11T15:27:43;7.05;;;2.88;;
68310;SDS011;55157;51.036;17.058;2023-03-11T15:30:16;5.97;;;3.70;;
68310;SDS011;55157;51.036;17.058;2023-03-11T15:32:44;4.70;;;2.70;;
68310;SDS011;55157;51.036;17.058;2023-03-11T15:35:13;5.90;;;3.20;;
68310;SDS011;55157;51.036;17.058;2023-03-11T15:37:39;5.35;;;2.40;;
68310;SDS011;55157;51.036;17.058;2023-03-11T15:42:47;4.95;;;2.72;;
68310;SDS011;55157;51.036;17.058;2023-03-11T15:45:14;7.60;;;3.15;;
68310;SDS011;55157;51.036;17.058;2023-03-11T15:47:39;5.50;;;3.03;;
68310;SDS011;55157;51.036;17.058;2023-03-11T15:50:14;6.85;;;3.17;;
68310;SDS011;55157;51.036;17.058;2023-03-11T15:52:39;2.58;;;1.92;;
68310;SDS011;55157;51.036;17.058;2023-03-11T15:55:05;5.13;;;2.42;;
68310;SDS011;55157;51.036;17.058;2023-03-11T15:57:31;6.47;;;2.85;;
68310;SDS011;55157;51.036;17.058;2023-03-11T15:59:57;5.30;;;2.70;;
68310;SDS011;55157;51.036;17.058;2023-03-11T16:02:23;5.60;;;2.80;;
68310;SDS011;55157;51.036;17.058;2023-03-11T16:04:49;5.88;;;2.85;;
68310;SDS011;55157;51.036;17.058;2023-03-11T16:07:16;5.88;;;2.95;;
68310;SDS011;55157;51.036;17.058;2023-03-11T16:09:41;10.15;;;3.00;;
68310;SDS011;55157;51.036;17.058;2023-03-11T16:12:12;10.02;;;3.53;;
68310;SDS011;55157;51.036;17.058;2023-03-11T16:14:38;6.93;;;3.00;;
68310;SDS011;55157;51.036;17.058;2023-03-11T16:17:03;6.22;;;3.05;;
68310;SDS011;55157;51.036;17.058;2023-03-11T16:19:28;8.10;;;3.65;;